createdAt,value
2018-04-28T00:00:03.566Z,0.00
2018-04-28T00:01:03.653Z,0.00
2018-04-28T00:02:03.565Z,0.00
2018-04-28T00:03:03.644Z,0.00
2018-04-28T00:04:03.483Z,0.00
2018-04-28T00:05:03.476Z,0.00
2018-04-28T00:06:03.439Z,0.00
2018-04-28T00:07:03.404Z,0.00
2018-04-28T00:08:03.475Z,0.00
2018-04-28T00:09:03.511Z,0.00
2018-04-28T00:10:03.517Z,0.00
2018-04-28T00:11:03.346Z,0.00
2018-04-28T00:12:03.290Z,0.00
2018-04-28T00:13:03.259Z,0.00
2018-04-28T00:14:03.340Z,0.00
2018-04-28T00:15:03.784Z,0.00
2018-04-28T00:16:03.179Z,0.00
2018-04-28T00:17:03.167Z,0.00
2018-04-28T00:18:03.152Z,0.00
2018-04-28T00:19:03.218Z,0.00
2018-04-28T00:20:03.116Z,0.00
2018-04-28T00:21:03.073Z,0.00
2018-04-28T00:22:03.068Z,0.00
2018-04-28T00:23:03.123Z,0.00
2018-04-28T00:24:03.048Z,0.00
2018-04-28T00:25:03.000Z,0.00
2018-04-28T00:26:02.979Z,0.00
2018-04-28T00:27:02.913Z,0.00
2018-04-28T00:28:02.904Z,0.00
2018-04-28T00:29:02.901Z,0.00
2018-04-28T00:30:03.047Z,0.00
2018-04-28T00:31:02.850Z,0.00
2018-04-28T00:32:02.789Z,0.00
2018-04-28T00:33:02.775Z,0.00
2018-04-28T00:34:03.296Z,0.00
2018-04-28T00:35:02.880Z,0.00
2018-04-28T00:36:02.710Z,0.00
2018-04-28T00:37:02.688Z,0.00
2018-04-28T00:38:02.683Z,0.00
2018-04-28T00:39:03.164Z,0.00
2018-04-28T00:40:02.614Z,0.00
2018-04-28T00:41:02.753Z,0.00
2018-04-28T00:42:02.570Z,0.00
2018-04-28T00:43:02.548Z,0.00
2018-04-28T00:44:02.545Z,0.00
2018-04-28T00:45:02.478Z,0.00
2018-04-28T00:46:02.484Z,0.00
2018-04-28T00:47:02.535Z,0.00
2018-04-28T00:48:02.426Z,0.00
2018-04-28T00:49:02.391Z,0.00
2018-04-28T00:50:02.377Z,0.00
2018-04-28T00:51:02.333Z,0.00
2018-04-28T00:52:02.348Z,0.00
2018-04-28T00:53:02.268Z,0.00
2018-04-28T00:54:02.242Z,0.00
2018-04-28T00:55:02.226Z,0.00
2018-04-28T00:56:02.189Z,0.00
2018-04-28T00:57:02.865Z,0.00
2018-04-28T00:58:02.161Z,0.00
2018-04-28T00:59:02.683Z,0.00
2018-04-28T01:00:02.117Z,0.00
2018-04-28T01:01:02.107Z,0.00
2018-04-28T01:02:02.659Z,0.00
2018-04-28T01:03:02.017Z,0.00
2018-04-28T01:04:02.047Z,0.00
2018-04-28T01:05:01.989Z,0.00
2018-04-28T01:06:01.998Z,0.00
2018-04-28T01:07:01.969Z,0.00
2018-04-28T01:08:02.021Z,0.00
2018-04-28T01:09:01.938Z,0.00
2018-04-28T01:10:01.859Z,0.00
2018-04-28T01:11:01.859Z,0.00
2018-04-28T01:12:01.808Z,0.00
2018-04-28T01:13:01.895Z,0.00
2018-04-28T01:14:01.751Z,0.00
2018-04-28T01:15:01.792Z,0.00
2018-04-28T01:16:02.219Z,0.00
2018-04-28T01:17:01.687Z,0.00
2018-04-28T01:18:02.300Z,0.00
2018-04-28T01:19:01.621Z,0.00
2018-04-28T01:20:01.596Z,0.00
2018-04-28T01:21:01.581Z,0.00
2018-04-28T01:22:01.599Z,0.00
2018-04-28T01:23:01.608Z,0.00
2018-04-28T01:24:01.476Z,0.00
2018-04-28T01:25:01.507Z,0.00
2018-04-28T01:26:01.490Z,0.00
2018-04-28T01:27:01.436Z,0.00
2018-04-28T01:28:01.474Z,0.00
2018-04-28T01:29:01.504Z,0.00
2018-04-28T01:30:01.441Z,0.00
2018-04-28T01:31:01.366Z,0.00
2018-04-28T01:32:01.381Z,0.00
2018-04-28T01:33:01.291Z,0.00
2018-04-28T01:34:01.389Z,0.00
2018-04-28T01:35:01.242Z,0.00
2018-04-28T01:36:01.198Z,0.00
2018-04-28T01:37:01.175Z,0.00
2018-04-28T01:38:01.144Z,0.00
2018-04-28T01:39:01.101Z,0.00
2018-04-28T01:40:01.232Z,0.00
2018-04-28T01:41:01.066Z,0.00
2018-04-28T01:42:01.024Z,0.00
2018-04-28T01:43:01.000Z,0.00
2018-04-28T01:44:00.997Z,0.00
2018-04-28T01:45:00.995Z,0.00
2018-04-28T01:46:01.547Z,0.00
2018-04-28T01:47:00.931Z,0.00
2018-04-28T01:48:00.965Z,0.00
2018-04-28T01:49:00.869Z,0.00
2018-04-28T01:50:00.824Z,0.00
2018-04-28T01:51:00.909Z,0.00
2018-04-28T01:52:00.795Z,0.00
2018-04-28T01:53:00.772Z,0.00
2018-04-28T01:54:00.753Z,0.00
2018-04-28T01:55:00.717Z,0.00
2018-04-28T01:56:00.872Z,0.00
2018-04-28T01:57:00.671Z,0.00
2018-04-28T01:58:00.761Z,0.00
2018-04-28T01:59:00.619Z,0.00
2018-04-28T02:00:00.604Z,0.00
2018-04-28T02:01:00.675Z,0.00
2018-04-28T02:02:00.632Z,0.00
2018-04-28T02:03:00.513Z,0.00
2018-04-28T02:04:00.543Z,0.00
2018-04-28T02:05:00.439Z,0.00
2018-04-28T02:06:00.431Z,0.00
2018-04-28T02:07:00.496Z,0.00
2018-04-28T02:08:00.437Z,0.00
2018-04-28T02:09:00.882Z,0.00
2018-04-28T02:10:00.322Z,0.00
2018-04-28T02:11:00.287Z,0.00
2018-04-28T02:12:00.281Z,0.00
2018-04-28T02:13:00.367Z,0.00
2018-04-28T02:14:00.222Z,0.00
2018-04-28T02:15:00.189Z,0.00
2018-04-28T02:16:00.174Z,0.00
2018-04-28T02:17:00.764Z,0.00
2018-04-28T02:18:01.087Z,0.00
2018-04-28T02:19:00.215Z,0.00
2018-04-28T02:20:00.076Z,0.00
2018-04-28T02:21:00.064Z,0.00
2018-04-28T02:22:00.020Z,0.00
2018-04-28T02:23:00.139Z,0.00
2018-04-28T02:24:00.086Z,0.00
2018-04-28T02:24:59.993Z,0.00
2018-04-28T02:25:59.902Z,0.00
2018-04-28T02:26:59.952Z,0.00
2018-04-28T02:28:00.355Z,0.00
2018-04-28T02:29:00.054Z,0.00
2018-04-28T02:29:59.812Z,0.00
2018-04-28T02:30:59.818Z,0.00
2018-04-28T02:31:59.793Z,0.00
2018-04-28T02:33:00.308Z,0.00
2018-04-28T02:33:59.838Z,0.00
2018-04-28T02:34:59.696Z,0.00
2018-04-28T02:35:59.787Z,0.00
2018-04-28T02:36:59.643Z,0.00
2018-04-28T02:37:59.612Z,0.00
2018-04-28T02:38:59.686Z,0.00
2018-04-28T02:39:59.564Z,0.00
2018-04-28T02:40:59.531Z,0.00
2018-04-28T02:41:59.577Z,0.00
2018-04-28T02:42:59.545Z,0.00
2018-04-28T02:43:59.520Z,0.00
2018-04-28T02:44:59.586Z,0.00
2018-04-28T02:45:59.423Z,0.00
2018-04-28T02:46:59.456Z,0.00
2018-04-28T02:47:59.463Z,0.00
2018-04-28T02:48:59.525Z,0.00
2018-04-28T02:49:59.870Z,0.00
2018-04-28T02:50:59.312Z,0.00
2018-04-28T02:51:59.284Z,0.00
2018-04-28T02:52:59.324Z,0.00
2018-04-28T02:53:59.200Z,0.00
2018-04-28T02:54:59.204Z,0.00
2018-04-28T02:55:59.194Z,0.00
2018-04-28T02:56:59.143Z,0.00
2018-04-28T02:57:59.155Z,0.00
2018-04-28T02:58:59.056Z,0.00
2018-04-28T02:59:59.142Z,0.00
2018-04-28T03:00:59.213Z,0.00
2018-04-28T03:01:59.130Z,0.00
2018-04-28T03:02:59.209Z,0.00
2018-04-28T03:03:58.920Z,0.00
2018-04-28T03:04:58.953Z,0.00
2018-04-28T03:05:59.107Z,0.00
2018-04-28T03:06:58.867Z,0.00
2018-04-28T03:07:58.849Z,0.00
2018-04-28T03:08:58.995Z,0.00
2018-04-28T03:09:59.650Z,0.00
2018-04-28T03:10:58.832Z,0.00
2018-04-28T03:11:58.744Z,0.00
2018-04-28T03:12:59.184Z,0.00
2018-04-28T03:13:58.849Z,0.00
2018-04-28T03:14:59.331Z,0.00
2018-04-28T03:15:58.796Z,0.00
2018-04-28T03:16:58.770Z,0.00
2018-04-28T03:17:58.881Z,0.00
2018-04-28T03:18:58.520Z,0.00
2018-04-28T03:19:58.749Z,0.00
2018-04-28T03:20:58.492Z,0.00
2018-04-28T03:21:59.165Z,0.00
2018-04-28T03:22:58.801Z,0.00
2018-04-28T03:23:58.426Z,0.00
2018-04-28T03:24:58.397Z,0.00
2018-04-28T03:25:58.343Z,0.00
2018-04-28T03:26:58.318Z,0.00
2018-04-28T03:27:58.446Z,0.00
2018-04-28T03:28:58.610Z,0.00
2018-04-28T03:29:58.370Z,0.00
2018-04-28T03:30:58.244Z,0.00
2018-04-28T03:31:58.569Z,0.00
2018-04-28T03:32:58.630Z,0.00
2018-04-28T03:33:58.168Z,0.00
2018-04-28T03:34:58.138Z,0.00
2018-04-28T03:35:58.089Z,0.00
2018-04-28T03:36:58.077Z,0.00
2018-04-28T03:37:58.137Z,0.00
2018-04-28T03:38:58.095Z,0.00
2018-04-28T03:39:58.134Z,0.00
2018-04-28T03:40:58.250Z,0.00
2018-04-28T03:41:57.992Z,0.00
2018-04-28T03:42:58.345Z,0.00
2018-04-28T03:43:58.272Z,0.00
2018-04-28T03:44:58.541Z,0.00
2018-04-28T03:45:57.925Z,0.00
2018-04-28T03:46:58.218Z,0.00
2018-04-28T03:47:58.994Z,0.00
2018-04-28T03:48:58.073Z,0.00
2018-04-28T03:49:57.927Z,0.00
2018-04-28T03:50:57.975Z,0.00
2018-04-28T03:51:57.670Z,0.00
2018-04-28T03:52:57.626Z,0.00
2018-04-28T03:53:57.687Z,0.00
2018-04-28T03:54:57.613Z,0.00
2018-04-28T03:55:57.693Z,0.00
2018-04-28T03:56:57.504Z,0.00
2018-04-28T03:57:57.513Z,0.00
2018-04-28T03:58:57.503Z,0.00
2018-04-28T03:59:57.471Z,0.00
2018-04-28T04:00:57.403Z,0.00
2018-04-28T04:01:57.633Z,0.00
2018-04-28T04:02:57.359Z,0.00
2018-04-28T04:03:57.346Z,0.00
2018-04-28T04:04:57.454Z,0.00
2018-04-28T04:05:57.279Z,0.00
2018-04-28T04:06:57.274Z,0.00
2018-04-28T04:07:57.239Z,0.00
2018-04-28T04:08:57.199Z,0.00
2018-04-28T04:09:57.281Z,0.00
2018-04-28T04:10:57.171Z,0.00
2018-04-28T04:11:57.094Z,0.00
2018-04-28T04:12:57.097Z,0.00
2018-04-28T04:13:57.055Z,0.00
2018-04-28T04:14:57.081Z,0.00
2018-04-28T04:15:57.103Z,0.00
2018-04-28T04:16:57.027Z,0.00
2018-04-28T04:17:56.967Z,0.00
2018-04-28T04:18:57.443Z,0.00
2018-04-28T04:19:56.982Z,0.00
2018-04-28T04:20:56.886Z,0.00
2018-04-28T04:21:56.833Z,0.00
2018-04-28T04:22:56.793Z,0.00
2018-04-28T04:23:56.837Z,0.00
2018-04-28T04:24:56.837Z,0.00
2018-04-28T04:25:56.757Z,0.00
2018-04-28T04:26:56.696Z,0.00
2018-04-28T04:27:56.692Z,0.00
2018-04-28T04:28:56.662Z,0.00
2018-04-28T04:29:56.956Z,0.00
2018-04-28T04:30:56.651Z,0.00
2018-04-28T04:31:57.614Z,0.00
2018-04-28T04:32:56.572Z,0.00
2018-04-28T04:33:56.916Z,0.00
2018-04-28T04:34:56.529Z,0.00
2018-04-28T04:35:56.627Z,0.00
2018-04-28T04:36:56.500Z,0.00
2018-04-28T04:37:56.427Z,0.00
2018-04-28T04:38:56.388Z,0.00
2018-04-28T04:39:56.339Z,0.00
2018-04-28T04:40:56.857Z,0.00
2018-04-28T04:41:56.670Z,0.00
2018-04-28T04:42:56.277Z,0.00
2018-04-28T04:43:56.268Z,0.00
2018-04-28T04:44:56.212Z,0.00
2018-04-28T04:45:56.184Z,0.00
2018-04-28T04:46:56.488Z,0.00
2018-04-28T04:47:56.143Z,0.00
2018-04-28T04:48:56.205Z,0.00
2018-04-28T04:49:56.151Z,0.00
2018-04-28T04:50:56.064Z,0.00
2018-04-28T04:51:56.096Z,0.00
2018-04-28T04:52:56.010Z,0.00
2018-04-28T04:53:56.064Z,0.00
2018-04-28T04:54:55.972Z,0.00
2018-04-28T04:55:55.930Z,0.00
2018-04-28T04:56:55.951Z,0.00
2018-04-28T04:57:55.871Z,0.00
2018-04-28T04:58:55.877Z,0.00
2018-04-28T04:59:55.805Z,0.00
2018-04-28T05:00:55.801Z,0.00
2018-04-28T05:01:55.868Z,0.00
2018-04-28T05:02:55.742Z,0.00
2018-04-28T05:03:55.714Z,0.00
2018-04-28T05:04:55.687Z,0.00
2018-04-28T05:05:55.689Z,0.00
2018-04-28T05:06:55.735Z,0.00
2018-04-28T05:07:55.603Z,0.00
2018-04-28T05:08:55.569Z,0.00
2018-04-28T05:09:55.545Z,0.00
2018-04-28T05:10:55.540Z,0.00
2018-04-28T05:11:55.496Z,0.00
2018-04-28T05:12:55.935Z,0.00
2018-04-28T05:13:55.482Z,0.00
2018-04-28T05:14:55.559Z,0.00
2018-04-28T05:15:55.380Z,0.00
2018-04-28T05:16:55.358Z,0.00
2018-04-28T05:17:55.345Z,0.00
2018-04-28T05:18:55.598Z,0.00
2018-04-28T05:19:55.287Z,0.00
2018-04-28T05:20:55.296Z,0.00
2018-04-28T05:21:55.221Z,0.00
2018-04-28T05:22:55.197Z,0.00
2018-04-28T05:23:55.271Z,0.00
2018-04-28T05:24:55.201Z,0.00
2018-04-28T05:25:55.134Z,0.00
2018-04-28T05:26:55.091Z,0.00
2018-04-28T05:27:55.076Z,0.00
2018-04-28T05:28:55.066Z,0.00
2018-04-28T05:29:55.065Z,0.00
2018-04-28T05:30:54.973Z,0.00
2018-04-28T05:31:54.992Z,0.00
2018-04-28T05:32:54.928Z,0.00
2018-04-28T05:33:54.889Z,0.00
2018-04-28T05:34:54.972Z,0.00
2018-04-28T05:35:54.974Z,0.00
2018-04-28T05:36:54.820Z,0.00
2018-04-28T05:37:54.794Z,0.00
2018-04-28T05:38:54.780Z,0.00
2018-04-28T05:39:54.834Z,0.00
2018-04-28T05:40:54.748Z,0.00
2018-04-28T05:41:54.676Z,0.00
2018-04-28T05:42:54.646Z,0.00
2018-04-28T05:43:54.615Z,0.00
2018-04-28T05:44:54.603Z,0.00
2018-04-28T05:45:54.616Z,0.00
2018-04-28T05:46:54.569Z,0.00
2018-04-28T05:47:54.522Z,0.00
2018-04-28T05:48:54.502Z,0.00
2018-04-28T05:49:54.464Z,0.00
2018-04-28T05:50:54.486Z,0.00
2018-04-28T05:51:54.510Z,0.00
2018-04-28T05:52:54.378Z,0.00
2018-04-28T05:53:54.364Z,0.00
2018-04-28T05:54:54.341Z,0.00
2018-04-28T05:55:54.304Z,0.00
2018-04-28T05:56:54.290Z,0.00
2018-04-28T05:57:54.531Z,0.00
2018-04-28T05:58:54.252Z,0.00
2018-04-28T05:59:54.179Z,0.00
2018-04-28T06:00:54.177Z,0.00
2018-04-28T06:01:54.146Z,0.00
2018-04-28T06:02:54.477Z,0.00
2018-04-28T06:03:54.087Z,0.00
2018-04-28T06:04:54.074Z,0.00
2018-04-28T06:05:54.048Z,0.00
2018-04-28T06:06:54.031Z,0.00
2018-04-28T06:07:54.118Z,0.00
2018-04-28T06:08:53.948Z,0.00
2018-04-28T06:09:53.935Z,0.00
2018-04-28T06:10:53.925Z,0.00
2018-04-28T06:11:53.861Z,0.00
2018-04-28T06:12:53.933Z,0.00
2018-04-28T06:13:53.821Z,0.00
2018-04-28T06:14:53.884Z,0.00
2018-04-28T06:15:53.743Z,0.00
2018-04-28T06:16:53.723Z,0.00
2018-04-28T06:17:53.990Z,0.00
2018-04-28T06:18:53.741Z,0.00
2018-04-28T06:19:53.701Z,0.00
2018-04-28T06:20:53.617Z,0.00
2018-04-28T06:21:53.633Z,0.00
2018-04-28T06:22:53.652Z,0.00
2018-04-28T06:23:53.680Z,0.00
2018-04-28T06:24:53.522Z,0.00
2018-04-28T06:25:53.570Z,0.00
2018-04-28T06:26:53.471Z,0.00
2018-04-28T06:27:53.415Z,0.00
2018-04-28T06:28:53.398Z,0.00
2018-04-28T06:29:53.492Z,0.00
2018-04-28T06:30:53.349Z,0.00
2018-04-28T06:31:53.327Z,0.00
2018-04-28T06:32:53.298Z,0.00
2018-04-28T06:33:53.284Z,0.00
2018-04-28T06:34:53.235Z,0.00
2018-04-28T06:35:53.410Z,0.00
2018-04-28T06:36:53.342Z,0.00
2018-04-28T06:37:53.180Z,0.00
2018-04-28T06:38:53.135Z,0.00
2018-04-28T06:39:53.148Z,0.00
2018-04-28T06:40:53.160Z,0.00
2018-04-28T06:41:53.042Z,0.00
2018-04-28T06:42:53.027Z,0.00
2018-04-28T06:43:52.998Z,0.00
2018-04-28T06:44:53.032Z,0.00
2018-04-28T06:45:53.063Z,0.00
2018-04-28T06:46:52.902Z,0.00
2018-04-28T06:47:53.035Z,0.00
2018-04-28T06:48:52.839Z,0.00
2018-04-28T06:49:52.880Z,0.00
2018-04-28T06:50:52.854Z,0.00
2018-04-28T06:51:52.884Z,0.00
2018-04-28T06:52:52.800Z,0.00
2018-04-28T06:53:52.744Z,0.00
2018-04-28T06:54:52.682Z,0.00
2018-04-28T06:55:52.652Z,0.00
2018-04-28T06:56:52.741Z,0.00
2018-04-28T06:57:52.646Z,0.00
2018-04-28T06:58:52.599Z,0.00
2018-04-28T06:59:52.557Z,0.00
2018-04-28T07:00:52.513Z,0.00
2018-04-28T07:01:52.559Z,0.00
2018-04-28T07:02:52.463Z,0.00
2018-04-28T07:03:52.440Z,0.00
2018-04-28T07:04:52.409Z,0.00
2018-04-28T07:05:52.391Z,0.00
2018-04-28T07:06:52.370Z,0.00
2018-04-28T07:07:52.379Z,0.00
2018-04-28T07:08:52.317Z,0.00
2018-04-28T07:09:52.276Z,0.00
2018-04-28T07:10:52.353Z,0.00
2018-04-28T07:11:52.220Z,0.00
2018-04-28T07:12:52.245Z,0.00
2018-04-28T07:13:52.191Z,0.00
2018-04-28T07:14:52.191Z,0.00
2018-04-28T07:15:52.106Z,0.00
2018-04-28T07:16:52.111Z,0.00
2018-04-28T07:17:52.117Z,0.00
2018-04-28T07:18:52.054Z,0.00
2018-04-28T07:19:52.023Z,0.00
2018-04-28T07:20:51.982Z,0.00
2018-04-28T07:21:51.962Z,0.00
2018-04-28T07:22:51.925Z,0.00
2018-04-28T07:23:51.998Z,0.00
2018-04-28T07:24:51.866Z,0.00
2018-04-28T07:25:51.844Z,0.00
2018-04-28T07:26:51.826Z,0.00
2018-04-28T07:27:51.824Z,0.00
2018-04-28T07:28:51.772Z,0.00
2018-04-28T07:29:51.830Z,0.00
2018-04-28T07:30:51.769Z,0.00
2018-04-28T07:31:51.689Z,0.00
2018-04-28T07:32:51.662Z,0.00
2018-04-28T07:33:51.615Z,0.00
2018-04-28T07:34:51.707Z,0.00
2018-04-28T07:35:51.566Z,0.00
2018-04-28T07:36:51.554Z,0.00
2018-04-28T07:37:51.533Z,0.00
2018-04-28T07:38:51.538Z,0.00
2018-04-28T07:39:51.469Z,0.00
2018-04-28T07:40:51.487Z,0.00
2018-04-28T07:41:51.409Z,0.00
2018-04-28T07:42:51.396Z,0.00
2018-04-28T07:43:51.396Z,0.00
2018-04-28T07:44:51.321Z,0.00
2018-04-28T07:45:51.301Z,0.00
2018-04-28T07:46:51.372Z,0.00
2018-04-28T07:47:51.262Z,0.00
2018-04-28T07:48:51.204Z,0.00
2018-04-28T07:49:51.174Z,0.00
2018-04-28T07:50:51.173Z,0.00
2018-04-28T07:51:51.198Z,0.00
2018-04-28T07:52:51.100Z,0.00
2018-04-28T07:53:51.084Z,0.00
2018-04-28T07:54:51.048Z,0.00
2018-04-28T07:55:51.037Z,0.00
2018-04-28T07:56:50.996Z,0.00
2018-04-28T07:57:51.088Z,0.00
2018-04-28T07:58:50.959Z,0.00
2018-04-28T07:59:50.925Z,0.00
2018-04-28T08:00:50.926Z,0.00
2018-04-28T08:01:50.862Z,0.00
2018-04-28T08:02:50.973Z,0.00
2018-04-28T08:03:50.848Z,0.00
2018-04-28T08:04:50.785Z,0.00
2018-04-28T08:05:50.764Z,0.00
2018-04-28T08:06:50.746Z,0.00
2018-04-28T08:07:50.689Z,0.00
2018-04-28T08:08:50.766Z,0.00
2018-04-28T08:09:50.638Z,0.00
2018-04-28T08:10:50.610Z,0.00
2018-04-28T08:11:50.603Z,0.00
2018-04-28T08:12:50.582Z,0.00
2018-04-28T08:13:50.654Z,0.00
2018-04-28T08:14:50.501Z,0.00
2018-04-28T08:15:50.486Z,0.00
2018-04-28T08:16:50.465Z,0.00
2018-04-28T08:17:50.421Z,0.00
2018-04-28T08:18:50.408Z,0.00
2018-04-28T08:19:50.468Z,0.00
2018-04-28T08:20:50.427Z,0.00
2018-04-28T08:21:50.311Z,0.00
2018-04-28T08:22:50.292Z,0.00
2018-04-28T08:23:50.262Z,0.00
2018-04-28T08:24:50.356Z,0.00
2018-04-28T08:25:50.218Z,0.00
2018-04-28T08:26:50.183Z,0.00
2018-04-28T08:27:50.199Z,0.00
2018-04-28T08:28:50.139Z,0.00
2018-04-28T08:29:50.211Z,0.00
2018-04-28T08:30:50.080Z,0.00
2018-04-28T08:31:50.042Z,0.00
2018-04-28T08:32:50.021Z,0.00
2018-04-28T08:33:49.987Z,0.00
2018-04-28T08:34:50.022Z,0.00
2018-04-28T08:35:50.009Z,0.00
2018-04-28T08:36:49.997Z,0.00
2018-04-28T08:37:49.902Z,0.00
2018-04-28T08:38:49.856Z,0.00
2018-04-28T08:39:49.833Z,0.00
2018-04-28T08:40:49.857Z,0.00
2018-04-28T08:41:49.799Z,0.00
2018-04-28T08:42:49.743Z,0.00
2018-04-28T08:43:49.733Z,0.00
2018-04-28T08:44:49.695Z,0.00
2018-04-28T08:45:49.771Z,0.00
2018-04-28T08:46:49.649Z,0.00
2018-04-28T08:47:49.605Z,0.00
2018-04-28T08:48:49.579Z,0.00
2018-04-28T08:49:49.549Z,0.00
2018-04-28T08:50:49.634Z,0.00
2018-04-28T08:51:49.507Z,0.00
2018-04-28T08:52:49.476Z,0.00
2018-04-28T08:53:49.441Z,0.00
2018-04-28T08:54:49.417Z,0.00
2018-04-28T08:55:49.391Z,0.00
2018-04-28T08:56:49.446Z,0.00
2018-04-28T08:57:49.349Z,0.00
2018-04-28T08:58:49.307Z,0.00
2018-04-28T08:59:49.304Z,0.00
2018-04-28T09:00:49.254Z,0.00
2018-04-28T09:01:49.231Z,0.00
2018-04-28T09:02:49.252Z,0.00
2018-04-28T09:03:49.267Z,0.00
2018-04-28T09:04:49.194Z,0.00
2018-04-28T09:05:49.112Z,0.00
2018-04-28T09:06:49.094Z,0.00
2018-04-28T09:07:49.074Z,0.00
2018-04-28T09:08:49.083Z,0.00
2018-04-28T09:09:49.021Z,0.00
2018-04-28T09:10:48.999Z,0.00
2018-04-28T09:11:48.955Z,0.00
2018-04-28T09:12:48.932Z,0.00
2018-04-28T09:13:48.999Z,0.00
2018-04-28T09:14:48.885Z,0.00
2018-04-28T09:15:48.854Z,0.00
2018-04-28T09:16:48.816Z,0.00
2018-04-28T09:17:48.820Z,0.00
2018-04-28T09:18:48.820Z,0.00
2018-04-28T09:19:48.742Z,0.00
2018-04-28T09:20:48.738Z,0.00
2018-04-28T09:21:48.681Z,0.00
2018-04-28T09:22:48.676Z,0.00
2018-04-28T09:23:48.744Z,0.00
2018-04-28T09:24:48.618Z,0.00
2018-04-28T09:27:48.524Z,0.00
2018-04-28T09:28:48.605Z,0.00
2018-04-28T09:29:48.465Z,0.00
2018-04-28T09:30:48.434Z,0.00
2018-04-28T09:31:48.418Z,0.00
2018-04-28T09:32:48.403Z,0.00
2018-04-28T09:33:48.350Z,0.00
2018-04-28T09:34:48.460Z,0.00
2018-04-28T09:35:48.309Z,0.00
2018-04-28T09:36:48.281Z,0.00
2018-04-28T09:37:48.256Z,0.00
2018-04-28T09:38:48.245Z,0.00
2018-04-28T09:39:48.192Z,0.00
2018-04-28T09:40:48.268Z,0.00
2018-04-28T09:41:48.149Z,0.00
2018-04-28T09:42:48.128Z,0.00
2018-04-28T09:43:48.092Z,0.00
2018-04-28T09:44:48.084Z,0.00
2018-04-28T09:45:48.074Z,0.00
2018-04-28T09:46:48.010Z,0.00
2018-04-28T09:47:48.062Z,0.00
2018-04-28T09:48:47.959Z,0.00
2018-04-28T09:49:47.948Z,0.00
2018-04-28T09:50:47.967Z,0.00
2018-04-28T09:51:47.873Z,0.00
2018-04-28T09:52:47.852Z,0.00
2018-04-28T09:53:47.825Z,0.00
2018-04-28T09:54:47.792Z,0.00
2018-04-28T09:55:47.905Z,0.00
2018-04-28T09:56:47.743Z,0.00
2018-04-28T09:57:47.696Z,0.00
2018-04-28T09:58:47.696Z,0.00
2018-04-28T09:59:47.646Z,0.00
2018-04-28T10:00:47.690Z,0.00
2018-04-28T10:01:47.615Z,0.00
2018-04-28T10:02:47.591Z,0.00
2018-04-28T10:03:47.536Z,0.00
2018-04-28T10:04:47.533Z,0.00
2018-04-28T10:05:47.555Z,0.00
2018-04-28T10:06:47.480Z,0.00
2018-04-28T10:07:47.454Z,0.00
2018-04-28T10:08:47.397Z,0.00
2018-04-28T10:09:47.458Z,0.00
2018-04-28T10:10:47.368Z,0.00
2018-04-28T10:11:47.385Z,0.00
2018-04-28T10:12:47.400Z,0.00
2018-04-28T10:13:47.274Z,0.00
2018-04-28T10:14:47.265Z,0.00
2018-04-28T10:15:47.210Z,0.00
2018-04-28T10:16:47.196Z,0.00
2018-04-28T10:17:47.211Z,0.00
2018-04-28T10:18:47.132Z,0.00
2018-04-28T10:19:47.111Z,0.00
2018-04-28T10:20:47.070Z,0.00
2018-04-28T10:21:47.042Z,0.00
2018-04-28T10:22:47.084Z,0.00
2018-04-28T10:23:47.015Z,0.00
2018-04-28T10:24:46.998Z,0.00
2018-04-28T10:25:46.932Z,0.00
2018-04-28T10:26:46.921Z,0.00
2018-04-28T10:27:46.949Z,0.00
2018-04-28T10:28:46.869Z,0.00
2018-04-28T10:29:46.833Z,0.00
2018-04-28T10:30:46.827Z,0.00
2018-04-28T10:31:46.801Z,0.00
2018-04-28T10:32:46.817Z,0.00
2018-04-28T10:33:46.717Z,0.00
2018-04-28T10:34:46.705Z,0.00
2018-04-28T10:35:46.675Z,0.00
2018-04-28T10:36:46.652Z,0.00
2018-04-28T10:37:46.692Z,0.00
2018-04-28T10:38:46.593Z,0.00
2018-04-28T10:39:46.565Z,0.00
2018-04-28T10:40:46.551Z,0.00
2018-04-28T10:41:46.499Z,0.00
2018-04-28T10:42:46.601Z,0.00
2018-04-28T10:43:46.456Z,0.00
2018-04-28T10:44:46.434Z,0.00
2018-04-28T10:45:46.399Z,0.00
2018-04-28T10:46:46.370Z,0.00
2018-04-28T10:47:46.344Z,0.00
2018-04-28T10:48:46.368Z,0.00
2018-04-28T10:49:46.280Z,0.00
2018-04-28T10:50:46.260Z,0.00
2018-04-28T10:51:46.250Z,0.00
2018-04-28T10:52:46.208Z,0.00
2018-04-28T10:53:46.334Z,0.00
2018-04-28T10:54:46.180Z,0.00
2018-04-28T10:55:46.137Z,0.00
2018-04-28T10:56:46.140Z,0.00
2018-04-28T10:57:46.077Z,0.00
2018-04-28T10:58:46.157Z,0.00
2018-04-28T10:59:46.035Z,0.00
2018-04-28T11:00:45.996Z,0.00
2018-04-28T11:01:45.961Z,0.00
2018-04-28T11:02:45.948Z,0.00
2018-04-28T11:03:45.958Z,0.00
2018-04-28T11:04:45.894Z,0.00
2018-04-28T11:05:45.853Z,0.00
2018-04-28T11:06:45.839Z,0.00
2018-04-28T11:07:45.801Z,0.00
2018-04-28T11:08:45.813Z,0.00
2018-04-28T11:09:45.751Z,0.00
2018-04-28T11:10:45.715Z,0.00
2018-04-28T11:11:45.779Z,0.00
2018-04-28T11:12:45.661Z,0.00
2018-04-28T11:13:45.743Z,0.00
2018-04-28T11:14:45.605Z,0.00
2018-04-28T11:15:45.602Z,0.00
2018-04-28T11:16:45.555Z,0.00
2018-04-28T11:17:45.527Z,0.00
2018-04-28T11:18:45.616Z,0.00
2018-04-28T11:19:45.510Z,0.00
2018-04-28T11:20:45.480Z,0.00
2018-04-28T11:21:45.424Z,0.00
2018-04-28T11:22:45.422Z,0.00
2018-04-28T11:23:45.396Z,0.00
2018-04-28T11:24:45.392Z,0.00
2018-04-28T11:25:45.429Z,0.00
2018-04-28T11:26:45.293Z,0.00
2018-04-28T11:27:45.266Z,0.00
2018-04-28T11:28:45.229Z,0.00
2018-04-28T11:29:45.305Z,0.00
2018-04-28T11:30:45.176Z,0.00
2018-04-28T11:31:45.246Z,0.00
2018-04-28T11:32:45.126Z,0.00
2018-04-28T11:33:45.112Z,0.00
2018-04-28T11:34:45.216Z,0.00
2018-04-28T11:35:45.057Z,0.00
2018-04-28T11:36:45.073Z,0.00
2018-04-28T11:37:44.997Z,0.00
2018-04-28T11:38:44.966Z,0.00
2018-04-28T11:39:44.978Z,0.00
2018-04-28T11:40:44.898Z,5.63
2018-04-28T11:41:44.894Z,5.63
2018-04-28T11:42:44.867Z,5.63
2018-04-28T11:43:44.873Z,5.63
2018-04-28T11:44:44.907Z,5.63
2018-04-28T11:45:44.764Z,5.63
2018-04-28T11:46:44.747Z,5.63
2018-04-28T11:47:44.741Z,5.63
2018-04-28T11:48:44.726Z,11.25
2018-04-28T11:49:44.809Z,11.25
2018-04-28T11:50:44.625Z,11.25
2018-04-28T11:51:44.603Z,5.63
2018-04-28T11:52:44.575Z,5.63
2018-04-28T11:53:44.561Z,5.63
2018-04-28T11:54:44.581Z,11.25
2018-04-28T11:55:44.552Z,11.25
2018-04-28T11:56:44.465Z,11.25
2018-04-28T11:57:44.452Z,11.25
2018-04-28T11:58:44.434Z,11.25
2018-04-28T11:59:44.387Z,11.25
2018-04-28T12:00:44.750Z,11.25
2018-04-28T12:01:44.395Z,11.25
2018-04-28T12:02:44.382Z,11.25
2018-04-28T12:03:44.277Z,11.25
2018-04-28T12:04:44.354Z,11.25
2018-04-28T12:05:44.323Z,16.88
2018-04-28T12:06:44.324Z,16.88
2018-04-28T12:07:44.169Z,16.88
2018-04-28T12:08:44.139Z,16.88
2018-04-28T12:09:44.089Z,16.88
2018-04-28T12:10:44.114Z,22.50
2018-04-28T12:11:44.192Z,22.50
2018-04-28T12:12:44.082Z,22.50
2018-04-28T12:13:44.026Z,22.50
2018-04-28T12:14:43.984Z,28.13
2018-04-28T12:15:43.973Z,28.13
2018-04-28T12:16:44.010Z,33.75
2018-04-28T12:17:43.925Z,33.75
2018-04-28T12:18:43.888Z,33.75
2018-04-28T12:19:43.873Z,39.38
2018-04-28T12:20:43.976Z,39.38
2018-04-28T12:21:43.857Z,33.75
2018-04-28T12:22:43.777Z,33.75
2018-04-28T12:23:43.774Z,33.75
2018-04-28T12:24:43.814Z,33.75
2018-04-28T12:25:43.710Z,33.75
2018-04-28T12:26:43.725Z,33.75
2018-04-28T12:27:43.666Z,33.75
2018-04-28T12:28:43.614Z,33.75
2018-04-28T12:29:43.617Z,39.38
2018-04-28T12:30:43.570Z,45.00
2018-04-28T12:31:43.533Z,50.63
2018-04-28T12:32:43.619Z,56.25
2018-04-28T12:33:43.490Z,56.25
2018-04-28T12:34:43.469Z,61.88
2018-04-28T12:35:43.423Z,50.63
2018-04-28T12:36:43.427Z,61.88
2018-04-28T12:37:43.384Z,61.88
2018-04-28T12:38:43.462Z,67.50
2018-04-28T12:39:43.361Z,67.50
2018-04-28T12:40:43.304Z,73.13
2018-04-28T12:41:43.292Z,78.75
2018-04-28T12:42:43.306Z,78.75
2018-04-28T12:43:43.345Z,84.38
2018-04-28T12:44:43.205Z,84.38
2018-04-28T12:45:43.199Z,78.75
2018-04-28T12:46:43.160Z,95.63
2018-04-28T12:47:43.138Z,95.63
2018-04-28T12:48:43.152Z,95.63
2018-04-28T12:49:43.088Z,78.75
2018-04-28T12:50:43.096Z,84.38
2018-04-28T12:51:43.037Z,95.63
2018-04-28T12:52:43.014Z,90.00
2018-04-28T12:53:43.029Z,90.00
2018-04-28T12:54:42.939Z,90.00
2018-04-28T12:55:42.943Z,84.38
2018-04-28T12:56:42.898Z,67.50
2018-04-28T12:57:42.869Z,61.88
2018-04-28T12:58:43.050Z,67.50
2018-04-28T12:59:42.819Z,90.00
2018-04-28T13:00:42.816Z,90.00
2018-04-28T13:01:42.768Z,101.25
2018-04-28T13:02:42.741Z,101.25
2018-04-28T13:03:42.817Z,101.25
2018-04-28T13:04:43.044Z,101.25
2018-04-28T13:05:42.698Z,101.25
2018-04-28T13:06:42.641Z,101.25
2018-04-28T13:07:42.647Z,101.25
2018-04-28T13:08:42.609Z,90.00
2018-04-28T13:09:42.678Z,90.00
2018-04-28T13:10:42.658Z,90.00
2018-04-28T13:11:42.523Z,95.63
2018-04-28T13:12:42.510Z,106.88
2018-04-28T13:13:42.486Z,106.88
2018-04-28T13:14:42.453Z,112.50
2018-04-28T13:15:42.435Z,112.50
2018-04-28T13:16:42.503Z,112.50